This is the latest recevied weather packets stored in our database for station/object G7GQA-4. If no packets are shown the sender has not sent any weather packets the latest 1 day(s).
| Time | Temp. | Humidity | Pressure | Rain* | Wind** | Luminosity | Snow |
|---|---|---|---|---|---|---|---|
| 1778088327 | 13.33° C | 48% | - | 0 mm | - | 138 W/m² | - |
| 1778087727 | 13.33° C | 47% | - | 0 mm | - | 131 W/m² | - |
| 1778087127 | 13.33° C | 47% | - | 0 mm | - | 155 W/m² | - |
| 1778086527 | 12.78° C | 47% | - | 0 mm | - | 201 W/m² | - |
| 1778084727 | 12.78° C | 48% | - | 0 mm | - | 182 W/m² | - |
| 1778084127 | 12.78° C | 48% | - | 0 mm | - | 163 W/m² | - |
| 1778082927 | 13.33° C | 47% | - | 0 mm | - | 134 W/m² | - |
| 1778081127 | 13.89° C | 44% | - | 0 mm | - | 209 W/m² | - |
| 1778079927 | 13.33° C | 48% | - | 0 mm | - | 349 W/m² | - |
| 1778078727 | 13.33° C | 48% | - | 0 mm | - | 474 W/m² | - |
| 1778077540 | 13.33° C | 46% | - | 0 mm | - | 369 W/m² | - |
| 1778076926 | 13.89° C | 46% | - | 0 mm | - | 726 W/m² | - |
| 1778076326 | 13.33° C | 49% | - | 0 mm | - | 356 W/m² | - |
| 1778072126 | 13.33° C | 53% | - | 0 mm | - | 515 W/m² | - |
| 1778071526 | 12.78° C | 54% | - | 0 mm | - | 489 W/m² | - |
| 1778070926 | 12.22° C | 55% | - | 0 mm | - | 589 W/m² | - |
| 1778070326 | 12.78° C | 55% | - | 0 mm | - | 608 W/m² | - |
| 1778067326 | 11.67° C | 61% | - | 0 mm | - | 445 W/m² | - |
| 1778066126 | 11.11° C | 61% | - | 0 mm | - | 410 W/m² | - |
| 1778057126 | 8.33° C | 76% | - | 0 mm | - | 200 W/m² | - |
| 1778055926 | 7.78° C | 78% | - | 0 mm | - | 136 W/m² | - |
| 1778055326 | 7.78° C | 78% | - | 0 mm | - | 132 W/m² | - |
| 1778053526 | 7.78° C | 79% | - | 0 mm | - | 111 W/m² | - |
| 1778052926 | 7.78° C | 79% | - | 0 mm | - | 112 W/m² | - |
| 1778052326 | 7.78° C | 79% | - | 0 mm | - | 107 W/m² | - |
* Rain latest hour (hover to see other rain measurements)
** Current wind speed in m/s (hover to see current wind gust speed)